This is the latest recevied weather packets stored in our database for station/object YT1XN-8. If no packets are shown the sender has not sent any weather packets the latest 10 day(s).
| Time | Temp. | Humidity | Pressure | Rain* | Wind** | Luminosity | Snow |
|---|---|---|---|---|---|---|---|
| 1777108844 | 22.78° C | 50% | 1017.3 hPa | 0 mm | - | - | - |
| 1777108360 | 22.78° C | 51% | 1017.5 hPa | 0 mm | - | - | - |
| 1777107700 | 22.22° C | 54% | 1017.5 hPa | 0 mm | - | - | - |
| 1777107040 | 21.67° C | 55% | 1017.5 hPa | 0 mm | - | - | - |
| 1777106380 | 21.11° C | 55% | 1017.4 hPa | 0 mm | - | - | - |
| 1777105720 | 20.56° C | 58% | 1017.5 hPa | 0 mm | - | - | - |
| 1777105060 | 20° C | 60% | 1017.4 hPa | 0 mm | - | - | - |
| 1777104645 | 19.44° C | 61% | 1017.5 hPa | 0 mm | - | - | - |
| 1777104401 | 19.44° C | 60% | 1017.5 hPa | 0 mm | - | - | - |
| 1777103741 | 18.89° C | 60% | 1017.5 hPa | 0 mm | - | - | - |
| 1777103081 | 17.78° C | 63% | 1017.5 hPa | 0 mm | - | - | - |
| 1777102421 | 16.67° C | 67% | 1017.4 hPa | 0 mm | - | - | - |
| 1777101761 | 16.11° C | 67% | 1017.5 hPa | 0 mm | - | - | - |
| 1777101101 | 15.56° C | 66% | 1017.4 hPa | 0 mm | - | - | - |
| 1777100441 | 15° C | 68% | 1017.4 hPa | 0 mm | - | - | - |
| 1777099781 | 14.44° C | 69% | 1017.4 hPa | 0 mm | - | - | - |
| 1777099121 | 13.33° C | 70% | 1017.4 hPa | 0 mm | - | - | - |
| 1777098461 | 12.78° C | 72% | 1017.3 hPa | 0 mm | - | - | - |
| 1777098044 | 12.78° C | 71% | 1017.3 hPa | 0 mm | - | - | - |
| 1777097801 | 12.78° C | 73% | 1017.3 hPa | 0 mm | - | - | - |
| 1777097141 | 12.22° C | 72% | 1017.3 hPa | 0 mm | - | - | - |
| 1777096481 | 12.22° C | 72% | 1017.3 hPa | 0 mm | - | - | - |
| 1777096244 | 12.22° C | 73% | 1017.2 hPa | 0 mm | - | - | - |
| 1777095821 | 12.22° C | 72% | 1017.2 hPa | 0 mm | - | - | - |
| 1777095644 | 12.22° C | 72% | 1017.1 hPa | 0 mm | - | - | - |
* Rain latest hour (hover to see other rain measurements)
** Current wind speed in m/s (hover to see current wind gust speed)